sensor_id;sensor_type;location;lat;lon;timestamp;P1;durP1;ratioP1;P2;durP2;ratioP2
19889;SDS011;10107;51.198;6.824;2023-06-22T00:00:46;4.93;;;2.70;;
19889;SDS011;10107;51.198;6.824;2023-06-22T00:04:50;4.05;;;2.72;;
19889;SDS011;10107;51.198;6.824;2023-06-22T00:13:03;3.47;;;2.78;;
19889;SDS011;10107;51.198;6.824;2023-06-22T00:17:09;3.75;;;2.63;;
19889;SDS011;10107;51.198;6.824;2023-06-22T00:21:16;3.30;;;2.90;;
19889;SDS011;10107;51.198;6.824;2023-06-22T00:25:21;3.05;;;2.53;;
19889;SDS011;10107;51.198;6.824;2023-06-22T00:29:31;3.70;;;2.70;;
19889;SDS011;10107;51.198;6.824;2023-06-22T00:33:45;3.63;;;2.80;;
19889;SDS011;10107;51.198;6.824;2023-06-22T00:37:53;4.85;;;2.95;;
19889;SDS011;10107;51.198;6.824;2023-06-22T00:42:02;3.60;;;2.65;;
19889;SDS011;10107;51.198;6.824;2023-06-22T00:46:09;3.33;;;2.38;;
19889;SDS011;10107;51.198;6.824;2023-06-22T00:50:14;3.80;;;2.53;;
19889;SDS011;10107;51.198;6.824;2023-06-22T00:54:22;4.30;;;3.40;;
19889;SDS011;10107;51.198;6.824;2023-06-22T00:58:26;3.50;;;2.60;;
19889;SDS011;10107;51.198;6.824;2023-06-22T01:02:32;6.45;;;3.60;;
19889;SDS011;10107;51.198;6.824;2023-06-22T01:06:35;4.00;;;2.90;;
19889;SDS011;10107;51.198;6.824;2023-06-22T01:10:50;4.05;;;3.20;;
19889;SDS011;10107;51.198;6.824;2023-06-22T01:14:55;5.10;;;3.40;;
19889;SDS011;10107;51.198;6.824;2023-06-22T01:19:14;3.75;;;3.17;;
19889;SDS011;10107;51.198;6.824;2023-06-22T01:23:33;3.47;;;3.10;;
19889;SDS011;10107;51.198;6.824;2023-06-22T01:27:56;3.35;;;2.90;;
19889;SDS011;10107;51.198;6.824;2023-06-22T01:32:21;3.92;;;3.53;;
19889;SDS011;10107;51.198;6.824;2023-06-22T01:36:27;4.03;;;3.15;;
19889;SDS011;10107;51.198;6.824;2023-06-22T01:40:40;5.47;;;3.75;;
19889;SDS011;10107;51.198;6.824;2023-06-22T01:44:44;5.63;;;4.10;;
19889;SDS011;10107;51.198;6.824;2023-06-22T01:48:49;4.30;;;3.65;;
19889;SDS011;10107;51.198;6.824;2023-06-22T01:52:54;5.07;;;3.33;;
19889;SDS011;10107;51.198;6.824;2023-06-22T01:57:01;4.03;;;3.25;;
19889;SDS011;10107;51.198;6.824;2023-06-22T02:05:12;3.72;;;3.20;;
19889;SDS011;10107;51.198;6.824;2023-06-22T02:09:29;4.07;;;3.45;;
19889;SDS011;10107;51.198;6.824;2023-06-22T02:13:34;5.45;;;4.10;;
19889;SDS011;10107;51.198;6.824;2023-06-22T02:17:42;4.85;;;3.55;;
19889;SDS011;10107;51.198;6.824;2023-06-22T02:21:48;3.88;;;3.35;;
19889;SDS011;10107;51.198;6.824;2023-06-22T02:25:50;3.45;;;3.15;;
19889;SDS011;10107;51.198;6.824;2023-06-22T02:29:53;4.75;;;3.65;;
19889;SDS011;10107;51.198;6.824;2023-06-22T02:34:00;3.72;;;3.28;;
19889;SDS011;10107;51.198;6.824;2023-06-22T02:38:03;3.88;;;3.47;;
19889;SDS011;10107;51.198;6.824;2023-06-22T02:42:06;5.85;;;4.35;;
19889;SDS011;10107;51.198;6.824;2023-06-22T02:46:10;4.43;;;4.00;;
19889;SDS011;10107;51.198;6.824;2023-06-22T02:50:17;4.50;;;3.65;;
19889;SDS011;10107;51.198;6.824;2023-06-22T02:54:22;7.30;;;4.35;;
19889;SDS011;10107;51.198;6.824;2023-06-22T02:58:26;5.20;;;4.28;;
19889;SDS011;10107;51.198;6.824;2023-06-22T03:02:29;4.18;;;3.78;;
19889;SDS011;10107;51.198;6.824;2023-06-22T03:06:35;4.88;;;4.05;;
19889;SDS011;10107;51.198;6.824;2023-06-22T03:10:38;4.18;;;3.70;;
19889;SDS011;10107;51.198;6.824;2023-06-22T03:14:40;4.22;;;3.53;;
19889;SDS011;10107;51.198;6.824;2023-06-22T03:18:42;5.30;;;3.85;;
19889;SDS011;10107;51.198;6.824;2023-06-22T03:22:46;5.35;;;4.13;;
19889;SDS011;10107;51.198;6.824;2023-06-22T03:26:50;5.15;;;4.18;;
19889;SDS011;10107;51.198;6.824;2023-06-22T03:30:51;4.57;;;4.18;;
19889;SDS011;10107;51.198;6.824;2023-06-22T03:34:53;6.07;;;3.85;;
19889;SDS011;10107;51.198;6.824;2023-06-22T03:38:59;6.38;;;4.85;;
19889;SDS011;10107;51.198;6.824;2023-06-22T03:43:02;6.28;;;4.35;;
19889;SDS011;10107;51.198;6.824;2023-06-22T03:47:04;6.65;;;4.75;;
19889;SDS011;10107;51.198;6.824;2023-06-22T03:51:07;5.27;;;4.17;;
19889;SDS011;10107;51.198;6.824;2023-06-22T03:55:09;7.97;;;5.15;;
19889;SDS011;10107;51.198;6.824;2023-06-22T03:59:12;5.50;;;4.45;;
19889;SDS011;10107;51.198;6.824;2023-06-22T04:03:14;5.05;;;4.55;;
19889;SDS011;10107;51.198;6.824;2023-06-22T04:07:16;5.70;;;4.03;;
19889;SDS011;10107;51.198;6.824;2023-06-22T04:11:18;5.13;;;3.83;;
19889;SDS011;10107;51.198;6.824;2023-06-22T04:15:21;4.43;;;3.65;;
19889;SDS011;10107;51.198;6.824;2023-06-22T04:19:22;5.80;;;4.07;;
19889;SDS011;10107;51.198;6.824;2023-06-22T04:23:24;4.50;;;3.85;;
19889;SDS011;10107;51.198;6.824;2023-06-22T04:27:26;3.92;;;3.63;;
19889;SDS011;10107;51.198;6.824;2023-06-22T04:31:29;4.93;;;4.25;;
19889;SDS011;10107;51.198;6.824;2023-06-22T04:35:32;4.40;;;3.60;;
19889;SDS011;10107;51.198;6.824;2023-06-22T04:39:33;4.30;;;3.90;;
19889;SDS011;10107;51.198;6.824;2023-06-22T04:43:36;6.57;;;4.93;;
19889;SDS011;10107;51.198;6.824;2023-06-22T04:47:39;6.05;;;4.25;;
19889;SDS011;10107;51.198;6.824;2023-06-22T04:51:41;6.20;;;4.22;;
19889;SDS011;10107;51.198;6.824;2023-06-22T04:55:43;6.90;;;5.53;;
19889;SDS011;10107;51.198;6.824;2023-06-22T04:59:45;5.22;;;3.95;;
19889;SDS011;10107;51.198;6.824;2023-06-22T05:03:49;6.13;;;3.70;;
19889;SDS011;10107;51.198;6.824;2023-06-22T05:07:50;5.53;;;3.63;;
19889;SDS011;10107;51.198;6.824;2023-06-22T05:11:55;6.22;;;5.18;;
19889;SDS011;10107;51.198;6.824;2023-06-22T05:15:56;7.18;;;4.95;;
19889;SDS011;10107;51.198;6.824;2023-06-22T05:20:02;6.07;;;4.50;;
19889;SDS011;10107;51.198;6.824;2023-06-22T05:24:06;6.07;;;4.53;;
19889;SDS011;10107;51.198;6.824;2023-06-22T05:28:08;6.00;;;4.65;;
19889;SDS011;10107;51.198;6.824;2023-06-22T05:32:11;4.85;;;4.15;;
19889;SDS011;10107;51.198;6.824;2023-06-22T05:36:14;7.22;;;4.60;;
19889;SDS011;10107;51.198;6.824;2023-06-22T05:40:16;5.10;;;4.32;;
19889;SDS011;10107;51.198;6.824;2023-06-22T05:44:18;6.30;;;4.38;;
19889;SDS011;10107;51.198;6.824;2023-06-22T05:48:19;9.02;;;7.00;;
19889;SDS011;10107;51.198;6.824;2023-06-22T05:52:23;9.70;;;6.55;;
19889;SDS011;10107;51.198;6.824;2023-06-22T05:56:28;7.60;;;5.57;;
19889;SDS011;10107;51.198;6.824;2023-06-22T06:00:30;6.87;;;5.10;;
19889;SDS011;10107;51.198;6.824;2023-06-22T06:04:32;9.20;;;5.43;;
19889;SDS011;10107;51.198;6.824;2023-06-22T06:08:36;7.18;;;4.70;;
19889;SDS011;10107;51.198;6.824;2023-06-22T06:12:38;5.95;;;5.00;;
19889;SDS011;10107;51.198;6.824;2023-06-22T06:16:39;7.18;;;5.35;;
19889;SDS011;10107;51.198;6.824;2023-06-22T06:20:41;9.60;;;6.43;;
19889;SDS011;10107;51.198;6.824;2023-06-22T06:24:44;9.80;;;6.30;;
19889;SDS011;10107;51.198;6.824;2023-06-22T06:28:50;7.63;;;5.68;;
19889;SDS011;10107;51.198;6.824;2023-06-22T06:32:51;9.75;;;6.28;;
19889;SDS011;10107;51.198;6.824;2023-06-22T06:36:55;10.98;;;7.60;;
19889;SDS011;10107;51.198;6.824;2023-06-22T06:40:59;8.40;;;5.85;;
19889;SDS011;10107;51.198;6.824;2023-06-22T06:45:00;10.20;;;7.28;;
19889;SDS011;10107;51.198;6.824;2023-06-22T06:49:02;10.00;;;8.15;;
19889;SDS011;10107;51.198;6.824;2023-06-22T06:53:03;12.82;;;8.55;;
19889;SDS011;10107;51.198;6.824;2023-06-22T06:57:07;8.25;;;6.72;;
19889;SDS011;10107;51.198;6.824;2023-06-22T07:01:11;9.90;;;7.15;;
19889;SDS011;10107;51.198;6.824;2023-06-22T07:05:12;10.02;;;7.90;;
19889;SDS011;10107;51.198;6.824;2023-06-22T07:09:14;15.57;;;8.93;;
19889;SDS011;10107;51.198;6.824;2023-06-22T07:13:18;12.23;;;9.32;;
19889;SDS011;10107;51.198;6.824;2023-06-22T07:21:21;12.32;;;9.70;;
19889;SDS011;10107;51.198;6.824;2023-06-22T07:25:23;12.73;;;9.82;;
19889;SDS011;10107;51.198;6.824;2023-06-22T07:29:26;10.30;;;8.45;;
19889;SDS011;10107;51.198;6.824;2023-06-22T07:33:28;11.02;;;9.15;;
19889;SDS011;10107;51.198;6.824;2023-06-22T07:37:30;9.80;;;7.60;;
19889;SDS011;10107;51.198;6.824;2023-06-22T07:41:33;9.93;;;6.83;;
19889;SDS011;10107;51.198;6.824;2023-06-22T07:45:37;11.65;;;9.10;;
19889;SDS011;10107;51.198;6.824;2023-06-22T07:49:40;9.57;;;8.57;;
19889;SDS011;10107;51.198;6.824;2023-06-22T07:53:50;11.05;;;8.70;;
19889;SDS011;10107;51.198;6.824;2023-06-22T07:57:51;10.45;;;7.50;;
19889;SDS011;10107;51.198;6.824;2023-06-22T08:01:55;11.88;;;8.23;;
19889;SDS011;10107;51.198;6.824;2023-06-22T08:05:56;10.93;;;8.27;;
19889;SDS011;10107;51.198;6.824;2023-06-22T08:09:58;10.77;;;6.57;;
19889;SDS011;10107;51.198;6.824;2023-06-22T08:14:00;6.85;;;6.15;;
19889;SDS011;10107;51.198;6.824;2023-06-22T08:18:04;9.48;;;7.50;;
19889;SDS011;10107;51.198;6.824;2023-06-22T08:22:06;8.48;;;7.40;;
19889;SDS011;10107;51.198;6.824;2023-06-22T08:26:08;7.45;;;5.70;;
19889;SDS011;10107;51.198;6.824;2023-06-22T08:30:10;7.03;;;6.13;;
19889;SDS011;10107;51.198;6.824;2023-06-22T08:34:13;8.60;;;6.97;;
19889;SDS011;10107;51.198;6.824;2023-06-22T08:38:15;8.57;;;6.85;;
19889;SDS011;10107;51.198;6.824;2023-06-22T08:42:18;8.90;;;6.30;;
19889;SDS011;10107;51.198;6.824;2023-06-22T08:46:20;6.97;;;5.95;;
19889;SDS011;10107;51.198;6.824;2023-06-22T08:50:31;7.55;;;6.47;;
19889;SDS011;10107;51.198;6.824;2023-06-22T08:54:33;7.88;;;6.63;;
19889;SDS011;10107;51.198;6.824;2023-06-22T08:58:34;6.47;;;5.67;;
19889;SDS011;10107;51.198;6.824;2023-06-22T09:02:36;6.13;;;5.53;;
19889;SDS011;10107;51.198;6.824;2023-06-22T09:06:42;9.00;;;6.60;;
19889;SDS011;10107;51.198;6.824;2023-06-22T09:10:46;7.65;;;6.07;;
19889;SDS011;10107;51.198;6.824;2023-06-22T09:14:48;7.10;;;5.93;;
19889;SDS011;10107;51.198;6.824;2023-06-22T09:18:50;6.77;;;5.70;;
19889;SDS011;10107;51.198;6.824;2023-06-22T09:22:53;6.87;;;6.00;;
19889;SDS011;10107;51.198;6.824;2023-06-22T09:26:54;6.30;;;5.70;;
19889;SDS011;10107;51.198;6.824;2023-06-22T09:30:56;7.80;;;6.23;;
19889;SDS011;10107;51.198;6.824;2023-06-22T09:34:58;6.70;;;5.63;;
19889;SDS011;10107;51.198;6.824;2023-06-22T09:39:01;5.80;;;5.20;;
19889;SDS011;10107;51.198;6.824;2023-06-22T09:43:06;6.68;;;5.80;;
19889;SDS011;10107;51.198;6.824;2023-06-22T09:47:08;5.68;;;5.07;;
19889;SDS011;10107;51.198;6.824;2023-06-22T09:51:09;5.60;;;4.97;;
19889;SDS011;10107;51.198;6.824;2023-06-22T09:55:12;5.40;;;4.90;;
19889;SDS011;10107;51.198;6.824;2023-06-22T09:59:15;6.00;;;5.30;;
19889;SDS011;10107;51.198;6.824;2023-06-22T10:03:17;6.00;;;5.32;;
19889;SDS011;10107;51.198;6.824;2023-06-22T10:07:19;5.87;;;4.97;;
19889;SDS011;10107;51.198;6.824;2023-06-22T10:11:22;6.07;;;5.47;;
19889;SDS011;10107;51.198;6.824;2023-06-22T10:15:29;6.30;;;5.70;;
19889;SDS011;10107;51.198;6.824;2023-06-22T10:19:30;6.43;;;5.32;;
19889;SDS011;10107;51.198;6.824;2023-06-22T10:23:32;7.05;;;6.35;;
19889;SDS011;10107;51.198;6.824;2023-06-22T10:27:35;6.75;;;5.90;;
19889;SDS011;10107;51.198;6.824;2023-06-22T10:31:39;7.85;;;6.15;;
19889;SDS011;10107;51.198;6.824;2023-06-22T10:35:41;8.45;;;6.35;;
19889;SDS011;10107;51.198;6.824;2023-06-22T10:39:43;7.22;;;6.35;;
19889;SDS011;10107;51.198;6.824;2023-06-22T10:43:45;8.07;;;6.68;;
19889;SDS011;10107;51.198;6.824;2023-06-22T10:47:47;8.23;;;6.95;;
19889;SDS011;10107;51.198;6.824;2023-06-22T10:51:49;10.10;;;7.70;;
19889;SDS011;10107;51.198;6.824;2023-06-22T10:55:50;9.07;;;7.60;;
19889;SDS011;10107;51.198;6.824;2023-06-22T10:59:54;12.70;;;8.77;;
19889;SDS011;10107;51.198;6.824;2023-06-22T11:03:56;11.07;;;8.70;;
19889;SDS011;10107;51.198;6.824;2023-06-22T11:07:58;15.73;;;10.43;;
19889;SDS011;10107;51.198;6.824;2023-06-22T11:11:59;12.07;;;9.90;;
19889;SDS011;10107;51.198;6.824;2023-06-22T11:16:03;13.25;;;10.43;;
19889;SDS011;10107;51.198;6.824;2023-06-22T11:24:10;12.63;;;9.18;;
19889;SDS011;10107;51.198;6.824;2023-06-22T11:28:12;15.20;;;11.18;;
19889;SDS011;10107;51.198;6.824;2023-06-22T11:32:15;12.75;;;10.52;;
19889;SDS011;10107;51.198;6.824;2023-06-22T11:36:19;13.60;;;11.00;;
19889;SDS011;10107;51.198;6.824;2023-06-22T11:40:21;14.43;;;11.77;;
19889;SDS011;10107;51.198;6.824;2023-06-22T11:44:23;16.55;;;12.68;;
19889;SDS011;10107;51.198;6.824;2023-06-22T11:48:26;23.13;;;15.65;;
19889;SDS011;10107;51.198;6.824;2023-06-22T11:52:28;17.23;;;14.27;;
19889;SDS011;10107;51.198;6.824;2023-06-22T11:56:29;15.43;;;13.05;;
19889;SDS011;10107;51.198;6.824;2023-06-22T12:00:32;15.20;;;12.27;;
19889;SDS011;10107;51.198;6.824;2023-06-22T12:04:35;11.15;;;9.90;;
19889;SDS011;10107;51.198;6.824;2023-06-22T12:08:37;16.88;;;13.07;;
19889;SDS011;10107;51.198;6.824;2023-06-22T12:12:39;13.32;;;11.93;;
19889;SDS011;10107;51.198;6.824;2023-06-22T12:16:40;15.45;;;12.40;;
19889;SDS011;10107;51.198;6.824;2023-06-22T12:20:45;17.80;;;14.05;;
19889;SDS011;10107;51.198;6.824;2023-06-22T12:24:47;18.10;;;15.77;;
19889;SDS011;10107;51.198;6.824;2023-06-22T12:28:49;18.27;;;14.05;;
19889;SDS011;10107;51.198;6.824;2023-06-22T12:32:51;17.77;;;14.52;;
19889;SDS011;10107;51.198;6.824;2023-06-22T12:36:54;14.32;;;12.43;;
19889;SDS011;10107;51.198;6.824;2023-06-22T12:40:55;17.23;;;12.77;;
19889;SDS011;10107;51.198;6.824;2023-06-22T12:44:57;19.95;;;16.15;;
19889;SDS011;10107;51.198;6.824;2023-06-22T12:48:59;15.10;;;11.43;;
19889;SDS011;10107;51.198;6.824;2023-06-22T12:53:02;14.65;;;12.05;;
19889;SDS011;10107;51.198;6.824;2023-06-22T12:57:05;17.02;;;13.65;;
19889;SDS011;10107;51.198;6.824;2023-06-22T13:01:07;13.50;;;10.43;;
19889;SDS011;10107;51.198;6.824;2023-06-22T13:05:08;11.93;;;10.27;;
19889;SDS011;10107;51.198;6.824;2023-06-22T13:09:11;12.13;;;10.60;;
19889;SDS011;10107;51.198;6.824;2023-06-22T13:13:13;15.90;;;13.40;;
19889;SDS011;10107;51.198;6.824;2023-06-22T13:17:15;13.13;;;11.73;;
19889;SDS011;10107;51.198;6.824;2023-06-22T13:21:16;14.93;;;13.32;;
19889;SDS011;10107;51.198;6.824;2023-06-22T13:25:19;14.82;;;12.50;;
19889;SDS011;10107;51.198;6.824;2023-06-22T13:29:23;14.90;;;12.23;;
19889;SDS011;10107;51.198;6.824;2023-06-22T13:33:25;16.95;;;13.27;;
19889;SDS011;10107;51.198;6.824;2023-06-22T13:37:27;15.88;;;12.98;;
19889;SDS011;10107;51.198;6.824;2023-06-22T13:41:30;14.55;;;11.65;;
19889;SDS011;10107;51.198;6.824;2023-06-22T13:45:32;16.58;;;13.63;;
19889;SDS011;10107;51.198;6.824;2023-06-22T13:49:34;16.38;;;12.32;;
19889;SDS011;10107;51.198;6.824;2023-06-22T13:53:35;15.57;;;11.52;;
19889;SDS011;10107;51.198;6.824;2023-06-22T13:57:39;14.75;;;11.98;;
19889;SDS011;10107;51.198;6.824;2023-06-22T15:32:51;18.02;;;14.32;;
19889;SDS011;10107;51.198;6.824;2023-06-22T15:36:52;15.48;;;13.27;;
19889;SDS011;10107;51.198;6.824;2023-06-22T15:40:54;15.93;;;14.23;;
19889;SDS011;10107;51.198;6.824;2023-06-22T15:44:56;17.55;;;14.82;;
19889;SDS011;10107;51.198;6.824;2023-06-22T15:48:59;17.73;;;14.57;;
19889;SDS011;10107;51.198;6.824;2023-06-22T15:53:00;17.27;;;14.25;;
19889;SDS011;10107;51.198;6.824;2023-06-22T15:57:02;17.23;;;13.30;;
19889;SDS011;10107;51.198;6.824;2023-06-22T16:01:04;13.98;;;11.10;;
19889;SDS011;10107;51.198;6.824;2023-06-22T16:05:08;12.70;;;11.00;;
19889;SDS011;10107;51.198;6.824;2023-06-22T16:09:10;13.43;;;10.77;;
19889;SDS011;10107;51.198;6.824;2023-06-22T16:17:16;13.05;;;10.77;;
19889;SDS011;10107;51.198;6.824;2023-06-22T16:21:19;13.70;;;11.90;;
19889;SDS011;10107;51.198;6.824;2023-06-22T16:25:21;15.40;;;11.40;;
19889;SDS011;10107;51.198;6.824;2023-06-22T16:29:22;15.75;;;12.65;;
19889;SDS011;10107;51.198;6.824;2023-06-22T16:33:24;16.08;;;13.70;;
19889;SDS011;10107;51.198;6.824;2023-06-22T16:37:27;23.25;;;19.38;;
19889;SDS011;10107;51.198;6.824;2023-06-22T16:41:29;25.17;;;19.33;;
19889;SDS011;10107;51.198;6.824;2023-06-22T16:45:31;25.20;;;21.20;;
19889;SDS011;10107;51.198;6.824;2023-06-22T16:49:34;26.58;;;22.80;;
19889;SDS011;10107;51.198;6.824;2023-06-22T16:53:38;27.40;;;23.08;;
19889;SDS011;10107;51.198;6.824;2023-06-22T16:57:39;25.60;;;20.58;;
19889;SDS011;10107;51.198;6.824;2023-06-22T17:01:44;23.65;;;20.55;;
19889;SDS011;10107;51.198;6.824;2023-06-22T17:05:52;26.90;;;23.13;;
19889;SDS011;10107;51.198;6.824;2023-06-22T17:09:56;26.45;;;21.20;;
19889;SDS011;10107;51.198;6.824;2023-06-22T17:13:58;26.90;;;22.23;;
19889;SDS011;10107;51.198;6.824;2023-06-22T17:18:00;24.67;;;19.90;;
19889;SDS011;10107;51.198;6.824;2023-06-22T17:22:03;27.75;;;19.73;;
19889;SDS011;10107;51.198;6.824;2023-06-22T17:26:06;24.98;;;19.50;;
19889;SDS011;10107;51.198;6.824;2023-06-22T17:30:09;16.38;;;12.80;;
19889;SDS011;10107;51.198;6.824;2023-06-22T17:34:13;22.05;;;17.45;;
19889;SDS011;10107;51.198;6.824;2023-06-22T17:38:19;26.85;;;18.95;;
19889;SDS011;10107;51.198;6.824;2023-06-22T17:42:25;20.60;;;17.17;;
19889;SDS011;10107;51.198;6.824;2023-06-22T17:46:33;22.33;;;18.05;;
19889;SDS011;10107;51.198;6.824;2023-06-22T17:50:38;22.90;;;18.60;;
19889;SDS011;10107;51.198;6.824;2023-06-22T17:54:40;21.20;;;17.25;;
19889;SDS011;10107;51.198;6.824;2023-06-22T17:58:50;20.05;;;17.17;;
19889;SDS011;10107;51.198;6.824;2023-06-22T18:02:53;21.55;;;15.88;;
19889;SDS011;10107;51.198;6.824;2023-06-22T18:06:55;18.83;;;15.82;;
19889;SDS011;10107;51.198;6.824;2023-06-22T18:10:57;18.25;;;15.88;;
19889;SDS011;10107;51.198;6.824;2023-06-22T18:15:03;21.80;;;16.77;;
19889;SDS011;10107;51.198;6.824;2023-06-22T18:19:06;18.75;;;16.20;;
19889;SDS011;10107;51.198;6.824;2023-06-22T18:23:09;20.77;;;16.50;;
19889;SDS011;10107;51.198;6.824;2023-06-22T18:27:11;25.95;;;20.25;;
19889;SDS011;10107;51.198;6.824;2023-06-22T18:31:19;25.10;;;21.67;;
19889;SDS011;10107;51.198;6.824;2023-06-22T18:35:21;32.70;;;27.02;;
19889;SDS011;10107;51.198;6.824;2023-06-22T18:39:23;31.25;;;26.40;;
19889;SDS011;10107;51.198;6.824;2023-06-22T18:43:26;26.20;;;23.37;;
19889;SDS011;10107;51.198;6.824;2023-06-22T18:47:29;31.08;;;25.92;;
19889;SDS011;10107;51.198;6.824;2023-06-22T18:51:42;28.88;;;24.00;;
19889;SDS011;10107;51.198;6.824;2023-06-22T18:55:50;29.42;;;26.15;;
19889;SDS011;10107;51.198;6.824;2023-06-22T18:59:58;28.53;;;25.27;;
19889;SDS011;10107;51.198;6.824;2023-06-22T19:04:15;22.00;;;19.67;;
19889;SDS011;10107;51.198;6.824;2023-06-22T19:08:17;23.15;;;20.67;;
19889;SDS011;10107;51.198;6.824;2023-06-22T19:12:23;20.52;;;18.33;;
19889;SDS011;10107;51.198;6.824;2023-06-22T19:16:28;20.05;;;17.95;;
19889;SDS011;10107;51.198;6.824;2023-06-22T19:20:32;17.83;;;15.38;;
19889;SDS011;10107;51.198;6.824;2023-06-22T19:28:49;12.15;;;10.85;;
19889;SDS011;10107;51.198;6.824;2023-06-22T19:32:52;13.60;;;10.85;;
19889;SDS011;10107;51.198;6.824;2023-06-22T19:36:55;9.85;;;8.68;;
19889;SDS011;10107;51.198;6.824;2023-06-22T19:41:00;12.07;;;10.27;;
19889;SDS011;10107;51.198;6.824;2023-06-22T19:45:02;13.45;;;10.77;;
19889;SDS011;10107;51.198;6.824;2023-06-22T19:49:04;13.93;;;11.27;;
19889;SDS011;10107;51.198;6.824;2023-06-22T19:53:11;14.68;;;11.15;;
19889;SDS011;10107;51.198;6.824;2023-06-22T19:57:13;12.65;;;11.27;;
19889;SDS011;10107;51.198;6.824;2023-06-22T20:01:15;15.30;;;12.05;;
19889;SDS011;10107;51.198;6.824;2023-06-22T20:05:19;14.82;;;11.38;;
19889;SDS011;10107;51.198;6.824;2023-06-22T20:09:23;13.80;;;10.43;;
19889;SDS011;10107;51.198;6.824;2023-06-22T20:13:25;11.32;;;9.48;;
19889;SDS011;10107;51.198;6.824;2023-06-22T20:17:26;11.77;;;9.38;;
19889;SDS011;10107;51.198;6.824;2023-06-22T20:21:29;12.57;;;9.98;;
19889;SDS011;10107;51.198;6.824;2023-06-22T20:25:35;11.75;;;9.45;;
19889;SDS011;10107;51.198;6.824;2023-06-22T20:29:38;14.07;;;10.63;;
19889;SDS011;10107;51.198;6.824;2023-06-22T20:33:40;11.52;;;9.88;;
19889;SDS011;10107;51.198;6.824;2023-06-22T20:37:41;12.80;;;10.43;;
19889;SDS011;10107;51.198;6.824;2023-06-22T20:41:44;13.32;;;10.80;;
19889;SDS011;10107;51.198;6.824;2023-06-22T20:45:46;12.98;;;11.02;;
19889;SDS011;10107;51.198;6.824;2023-06-22T20:49:48;13.18;;;10.82;;
19889;SDS011;10107;51.198;6.824;2023-06-22T20:53:50;10.95;;;9.75;;
19889;SDS011;10107;51.198;6.824;2023-06-22T20:57:53;13.60;;;11.20;;
19889;SDS011;10107;51.198;6.824;2023-06-22T21:01:56;14.55;;;12.68;;
19889;SDS011;10107;51.198;6.824;2023-06-22T21:05:58;13.25;;;11.55;;
19889;SDS011;10107;51.198;6.824;2023-06-22T21:09:59;13.05;;;10.88;;
19889;SDS011;10107;51.198;6.824;2023-06-22T21:14:02;10.75;;;9.55;;
19889;SDS011;10107;51.198;6.824;2023-06-22T21:18:04;10.48;;;8.27;;
19889;SDS011;10107;51.198;6.824;2023-06-22T21:22:06;10.43;;;8.60;;
19889;SDS011;10107;51.198;6.824;2023-06-22T21:26:08;10.93;;;9.60;;
19889;SDS011;10107;51.198;6.824;2023-06-22T21:30:11;11.73;;;8.35;;
19889;SDS011;10107;51.198;6.824;2023-06-22T21:34:14;10.18;;;9.07;;
19889;SDS011;10107;51.198;6.824;2023-06-22T21:38:15;12.27;;;9.88;;
19889;SDS011;10107;51.198;6.824;2023-06-22T21:42:17;11.50;;;10.00;;
19889;SDS011;10107;51.198;6.824;2023-06-22T21:46:20;11.60;;;10.27;;
19889;SDS011;10107;51.198;6.824;2023-06-22T21:50:22;7.80;;;7.00;;
19889;SDS011;10107;51.198;6.824;2023-06-22T21:54:24;13.13;;;10.52;;
19889;SDS011;10107;51.198;6.824;2023-06-22T21:58:25;12.45;;;9.57;;
19889;SDS011;10107;51.198;6.824;2023-06-22T22:02:28;11.15;;;9.65;;
19889;SDS011;10107;51.198;6.824;2023-06-22T22:06:30;12.63;;;10.60;;
19889;SDS011;10107;51.198;6.824;2023-06-22T22:10:33;11.82;;;9.70;;
19889;SDS011;10107;51.198;6.824;2023-06-22T22:14:36;12.10;;;10.43;;
19889;SDS011;10107;51.198;6.824;2023-06-22T22:18:42;14.35;;;10.27;;
19889;SDS011;10107;51.198;6.824;2023-06-22T22:22:44;7.50;;;6.53;;
19889;SDS011;10107;51.198;6.824;2023-06-22T22:26:45;11.25;;;9.35;;
19889;SDS011;10107;51.198;6.824;2023-06-22T22:30:47;14.35;;;10.93;;
19889;SDS011;10107;51.198;6.824;2023-06-22T22:34:50;12.73;;;10.77;;
19889;SDS011;10107;51.198;6.824;2023-06-22T22:38:52;14.27;;;10.73;;
19889;SDS011;10107;51.198;6.824;2023-06-22T22:42:53;13.32;;;10.60;;
19889;SDS011;10107;51.198;6.824;2023-06-22T22:46:55;12.93;;;11.18;;
19889;SDS011;10107;51.198;6.824;2023-06-22T22:50:58;11.95;;;9.95;;
19889;SDS011;10107;51.198;6.824;2023-06-22T22:55:04;12.82;;;9.90;;
19889;SDS011;10107;51.198;6.824;2023-06-22T22:59:09;11.73;;;9.85;;
19889;SDS011;10107;51.198;6.824;2023-06-22T23:03:10;12.80;;;10.18;;
19889;SDS011;10107;51.198;6.824;2023-06-22T23:07:13;12.43;;;10.05;;
19889;SDS011;10107;51.198;6.824;2023-06-22T23:11:15;14.27;;;10.70;;
19889;SDS011;10107;51.198;6.824;2023-06-22T23:15:17;10.77;;;8.88;;
19889;SDS011;10107;51.198;6.824;2023-06-22T23:19:19;12.85;;;9.75;;
19889;SDS011;10107;51.198;6.824;2023-06-22T23:23:22;11.88;;;9.18;;
19889;SDS011;10107;51.198;6.824;2023-06-22T23:27:24;9.93;;;8.63;;
19889;SDS011;10107;51.198;6.824;2023-06-22T23:31:26;11.38;;;9.10;;
19889;SDS011;10107;51.198;6.824;2023-06-22T23:35:28;11.45;;;8.98;;
19889;SDS011;10107;51.198;6.824;2023-06-22T23:39:31;12.63;;;9.57;;
19889;SDS011;10107;51.198;6.824;2023-06-22T23:43:34;12.80;;;10.50;;
19889;SDS011;10107;51.198;6.824;2023-06-22T23:47:35;12.25;;;9.75;;
19889;SDS011;10107;51.198;6.824;2023-06-22T23:51:37;11.75;;;9.13;;
19889;SDS011;10107;51.198;6.824;2023-06-22T23:55:40;11.38;;;9.23;;
19889;SDS011;10107;51.198;6.824;2023-06-22T23:59:43;11.88;;;9.25;;
